Time;durP1;ratioP1;P1;durP2;ratioP2;P2;SDS_P1;SDS_P2;PMS_P1;PMS_P2;Temp;Humidity;BMP_temperature;BMP_pressure;BME280_temperature;BME280_humidity;BME280_pressure;Samples;Min_cycle;Max_cycle;Signal;HPM_P1;HPM_P2
2022/09/30 09:29:03;;;;;;;;;2.00;2.00;;;;;;;;5079103;27;79331;-77
2022/09/30 09:31:28;;;;;;;;;1.33;1.00;;;;;;;;5116425;27;20663;-77
2022/09/30 09:34:14;;;;;;;;;0.00;0.00;;;;;;;;5115226;27;10799;-74
2022/09/30 09:36:51;;;;;;;;;0.00;0.00;;;;;;;;5116231;27;10861;-75
2022/09/30 09:39:21;;;;;;;;;0.50;0.50;;;;;;;;5116492;28;9326;-74
2022/09/30 09:41:55;;;;;;;;;0.75;0.75;;;;;;;;5116484;27;9428;-75
2022/09/30 09:44:38;;;;;;;;;1.00;0.00;;;;;;;;5103983;27;11647;-75
2022/09/30 09:47:04;;;;;;;;;1.00;1.00;;;;;;;;5126451;27;11432;-74
2022/09/30 09:49:34;;;;;;;;;1.00;1.00;;;;;;;;5116749;27;9558;-75
2022/09/30 09:52:11;;;;;;;;;0.75;0.75;;;;;;;;5114831;28;9699;-78
2022/09/30 09:54:41;;;;;;;;;0.00;0.00;;;;;;;;5116996;27;11705;-77
2022/09/30 09:57:10;;;;;;;;;0.75;0.75;;;;;;;;5116265;27;9637;-77
2022/09/30 09:59:38;;;;;;;;;0.75;0.75;;;;;;;;5116520;27;9625;-77
2022/09/30 10:02:21;;;;;;;;;1.00;1.00;;;;;;;;5114988;28;9823;-78
2022/09/30 10:04:49;;;;;;;;;1.00;1.00;;;;;;;;5143705;27;11630;-84
2022/09/30 10:07:18;;;;;;;;;0.50;0.50;;;;;;;;5157486;27;9995;-86
2022/09/30 10:09:44;;;;;;;;;1.00;1.00;;;;;;;;5157663;27;11930;-80
2022/09/30 10:12:12;;;;;;;;;3.00;1.00;;;;;;;;5135902;27;11457;-85
2022/09/30 10:14:45;;;;;;;;;2.50;2.00;;;;;;;;5126334;27;8803;-81
2022/09/30 10:17:20;;;;;;;;;1.00;1.00;;;;;;;;5129531;27;10379;-87
2022/09/30 10:19:50;;;;;;;;;2.00;2.00;;;;;;;;5133745;27;10345;-87
2022/09/30 10:22:16;;;;;;;;;2.25;1.25;;;;;;;;5137312;27;9838;-86
2022/09/30 10:24:41;;;;;;;;;2.25;1.50;;;;;;;;5129989;27;10256;-86
2022/09/30 10:27:34;;;;;;;;;2.00;2.00;;;;;;;;5127582;27;8896;-88
2022/09/30 10:29:59;;;;;;;;;1.75;1.25;;;;;;;;5119332;27;10430;-85
2022/09/30 10:32:25;;;;;;;;;1.00;0.75;;;;;;;;5127654;27;11520;-83
2022/09/30 10:34:55;;;;;;;;;2.00;2.00;;;;;;;;5152942;27;9522;-78
2022/09/30 10:37:22;;;;;;;;;2.50;2.00;;;;;;;;5157287;27;11647;-81
2022/09/30 10:40:00;;;;;;;;;1.50;1.50;;;;;;;;5146583;27;9964;-84
2022/09/30 10:42:27;;;;;;;;;1.75;1.75;;;;;;;;5130895;27;11580;-83
2022/09/30 10:45:08;;;;;;;;;3.00;1.50;;;;;;;;5102299;28;10030;-85
2022/09/30 10:47:41;;;;;;;;;3.75;3.00;;;;;;;;5104739;28;11606;-83
2022/09/30 10:50:08;;;;;;;;;3.50;2.00;;;;;;;;5134849;27;12414;-83
2022/09/30 10:52:59;;;;;;;;;2.25;1.75;;;;;;;;5143370;27;10347;-84
2022/09/30 10:55:24;;;;;;;;;3.50;2.50;;;;;;;;5078592;28;12835;-82
2022/09/30 10:57:51;;;;;;;;;8.50;8.50;;;;;;;;5078727;28;11534;-80
2022/09/30 11:00:20;;;;;;;;;3.25;3.25;;;;;;;;5078253;28;10823;-76
2022/09/30 11:03:12;;;;;;;;;5.00;4.00;;;;;;;;5072174;28;11623;-75
2022/09/30 11:05:39;;;;;;;;;2.25;2.00;;;;;;;;5056887;28;11950;-80
2022/09/30 11:08:24;;;;;;;;;5.00;3.00;;;;;;;;5058223;28;10503;-81
2022/09/30 11:10:53;;;;;;;;;2.00;2.00;;;;;;;;5041723;28;12966;-82
2022/09/30 11:13:34;;;;;;;;;1.00;1.00;;;;;;;;5058228;28;10409;-79
2022/09/30 11:16:23;;;;;;;;;2.00;2.00;;;;;;;;5058815;28;11181;-82
2022/09/30 11:18:55;;;;;;;;;1.50;1.50;;;;;;;;5057941;28;10249;-80
2022/09/30 11:21:25;;;;;;;;;4.00;1.00;;;;;;;;5041562;28;13443;-85
2022/09/30 11:23:56;;;;;;;;;2.75;1.75;;;;;;;;5058488;28;11806;-84
2022/09/30 11:26:22;;;;;;;;;2.00;2.00;;;;;;;;5037528;28;14468;-81
2022/09/30 11:28:50;;;;;;;;;2.25;1.50;;;;;;;;5038035;28;10860;-84
2022/09/30 11:31:15;;;;;;;;;2.25;2.25;;;;;;;;5045062;28;10667;-80
2022/09/30 11:33:50;;;;;;;;;2.00;2.00;;;;;;;;5101936;28;10345;-81
2022/09/30 11:36:30;;;;;;;;;3.00;3.00;;;;;;;;5101827;28;9025;-82
2022/09/30 11:39:14;;;;;;;;;3.00;2.00;;;;;;;;5102876;28;10465;-84
2022/09/30 11:41:44;;;;;;;;;3.00;2.00;;;;;;;;5106462;28;10438;-81
2022/09/30 11:44:29;;;;;;;;;4.25;2.00;;;;;;;;5110185;28;10268;-84
2022/09/30 11:46:58;;;;;;;;;1.75;1.00;;;;;;;;5105954;28;10305;-81
2022/09/30 11:49:31;;;;;;;;;4.25;3.00;;;;;;;;5121721;28;10248;-86
2022/09/30 11:52:07;;;;;;;;;5.50;4.00;;;;;;;;5120951;27;10215;-84
2022/09/30 11:54:45;;;;;;;;;4.00;4.00;;;;;;;;5111038;28;12458;-85
2022/09/30 11:57:10;;;;;;;;;2.00;2.00;;;;;;;;5127550;27;10758;-84
2022/09/30 11:59:58;;;;;;;;;2.50;2.00;;;;;;;;5112192;28;10160;-82
2022/09/30 12:02:34;;;;;;;;;6.00;3.00;;;;;;;;5102148;28;9253;-82
2022/09/30 12:05:04;;;;;;;;;3.25;1.75;;;;;;;;5110911;27;10379;-81
2022/09/30 12:07:36;;;;;;;;;3.00;3.00;;;;;;;;5126721;27;13884;-82
2022/09/30 12:10:25;;;;;;;;;2.50;2.50;;;;;;;;5110975;28;10391;-82
2022/09/30 12:12:55;;;;;;;;;4.75;3.00;;;;;;;;5095172;28;11450;-79
2022/09/30 12:15:22;;;;;;;;;5.00;2.00;;;;;;;;5103215;28;11472;-86
2022/09/30 12:18:05;;;;;;;;;2.00;2.00;;;;;;;;5108666;28;10371;-82
2022/09/30 12:20:32;;;;;;;;;1.75;1.75;;;;;;;;5100278;28;9680;-73
2022/09/30 12:23:18;;;;;;;;;2.00;2.00;;;;;;;;5100119;28;11405;-75
2022/09/30 12:26:10;;;;;;;;;2.00;2.00;;;;;;;;5101841;28;12929;-75
2022/09/30 12:31:21;;;;;;;;;6.00;3.00;;;;;;;;5117813;28;9858;-76
2022/09/30 12:33:49;;;;;;;;;3.25;3.00;;;;;;;;5117051;27;9929;-73
2022/09/30 12:36:44;;;;;;;;;3.00;3.00;;;;;;;;5108904;27;8787;-73
2022/09/30 12:39:23;;;;;;;;;2.00;2.00;;;;;;;;5045899;28;9981;-74
2022/09/30 12:41:59;;;;;;;;;3.00;3.00;;;;;;;;5046379;28;10128;-73
2022/09/30 12:44:39;;;;;;;;;2.25;2.25;;;;;;;;5046129;28;10211;-73
2022/09/30 12:47:11;;;;;;;;;2.00;2.00;;;;;;;;5046221;28;11405;-73
2022/09/30 12:49:38;;;;;;;;;2.50;1.75;;;;;;;;5047949;28;10120;-73
2022/09/30 12:52:05;;;;;;;;;2.50;1.50;;;;;;;;5045754;28;10868;-73
2022/09/30 12:54:31;;;;;;;;;1.00;1.00;;;;;;;;5046018;28;9906;-73
2022/09/30 12:56:59;;;;;;;;;2.75;0.25;;;;;;;;5047473;28;11442;-73
2022/09/30 12:59:35;;;;;;;;;2.00;1.00;;;;;;;;5045868;28;11698;-72
2022/09/30 13:02:02;;;;;;;;;2.00;2.00;;;;;;;;5046786;28;10703;-72
2022/09/30 13:04:35;;;;;;;;;1.50;1.50;;;;;;;;5038020;28;9880;-73
2022/09/30 13:07:00;;;;;;;;;1.00;1.00;;;;;;;;5051100;28;11568;-73
2022/09/30 13:09:28;;;;;;;;;1.75;1.75;;;;;;;;5056381;28;9795;-73
2022/09/30 13:11:53;;;;;;;;;2.25;1.00;;;;;;;;5056647;28;8791;-73
2022/09/30 13:14:34;;;;;;;;;0.00;0.00;;;;;;;;5056955;28;11460;-75
2022/09/30 13:17:23;;;;;;;;;1.00;1.00;;;;;;;;5120023;27;10345;-75
2022/09/30 13:19:50;;;;;;;;;1.50;1.50;;;;;;;;5111492;27;10743;-74
2022/09/30 13:24:59;;;;;;;;;1.00;1.00;;;;;;;;5099631;28;9606;-72
2022/09/30 13:27:33;;;;;;;;;3.75;1.50;;;;;;;;5101412;28;9656;-71
2022/09/30 13:29:59;;;;;;;;;2.00;2.00;;;;;;;;5098729;28;11394;-72
2022/09/30 13:32:36;;;;;;;;;2.75;2.00;;;;;;;;5097846;28;11317;-71
2022/09/30 13:35:21;;;;;;;;;4.00;2.50;;;;;;;;5099412;28;8849;-71
2022/09/30 13:38:06;;;;;;;;;3.00;2.75;;;;;;;;5098853;28;11620;-71
2022/09/30 13:40:33;;;;;;;;;1.00;1.00;;;;;;;;5098979;28;11380;-72
2022/09/30 13:42:59;;;;;;;;;2.50;2.00;;;;;;;;5103564;28;11436;-72
2022/09/30 13:45:32;;;;;;;;;2.00;2.00;;;;;;;;5119684;27;10386;-72
2022/09/30 13:48:09;;;;;;;;;2.00;2.00;;;;;;;;5120009;27;9699;-71
2022/09/30 13:50:46;;;;;;;;;2.00;2.00;;;;;;;;5118696;27;9558;-71
2022/09/30 13:53:14;;;;;;;;;2.00;1.50;;;;;;;;5108248;28;9816;-73
2022/09/30 13:55:40;;;;;;;;;2.00;2.00;;;;;;;;5119558;27;9776;-72
2022/09/30 13:58:11;;;;;;;;;2.00;2.00;;;;;;;;5104555;28;9926;-71
2022/09/30 14:00:56;;;;;;;;;3.00;2.00;;;;;;;;5114633;27;8790;-73
2022/09/30 14:03:31;;;;;;;;;2.50;2.00;;;;;;;;5117504;28;10536;-72
2022/09/30 14:05:56;;;;;;;;;3.00;3.00;;;;;;;;5118624;27;9608;-73
2022/09/30 14:08:32;;;;;;;;;1.50;1.00;;;;;;;;5118254;27;10328;-72
2022/09/30 14:11:08;;;;;;;;;2.75;2.25;;;;;;;;5134176;27;10356;-72
2022/09/30 14:13:37;;;;;;;;;5.00;5.00;;;;;;;;5155693;27;11746;-71
2022/09/30 14:16:09;;;;;;;;;5.00;3.00;;;;;;;;5142886;27;11922;-72
2022/09/30 14:18:37;;;;;;;;;4.50;4.50;;;;;;;;5142813;27;9965;-71
2022/09/30 14:21:24;;;;;;;;;5.50;4.25;;;;;;;;5141606;27;11476;-72
2022/09/30 14:24:02;;;;;;;;;6.25;6.25;;;;;;;;5142006;27;11790;-72
2022/09/30 14:26:39;;;;;;;;;5.00;5.00;;;;;;;;5147770;22;11645;-73
2022/09/30 14:29:13;;;;;;;;;4.50;4.00;;;;;;;;5059469;28;11608;-73
2022/09/30 14:31:45;;;;;;;;;7.75;3.75;;;;;;;;5058097;28;10360;-72
2022/09/30 14:34:12;;;;;;;;;3.75;3.75;;;;;;;;5059465;28;12552;-72
2022/09/30 14:36:38;;;;;;;;;2.00;2.00;;;;;;;;5061044;28;10675;-74
2022/09/30 14:39:04;;;;;;;;;4.25;3.50;;;;;;;;5061387;28;11379;-73
2022/09/30 14:41:30;;;;;;;;;3.75;2.75;;;;;;;;5061395;28;11662;-74
2022/09/30 14:43:57;;;;;;;;;4.50;3.75;;;;;;;;5042711;28;13676;-74
2022/09/30 14:46:23;;;;;;;;;3.00;2.00;;;;;;;;5061492;28;11057;-73
2022/09/30 14:48:49;;;;;;;;;2.00;2.00;;;;;;;;5059674;28;13402;-73
2022/09/30 14:51:16;;;;;;;;;3.75;3.75;;;;;;;;5061703;28;8827;-74
2022/09/30 14:53:51;;;;;;;;;3.00;2.75;;;;;;;;5061093;28;11390;-74
2022/09/30 14:56:21;;;;;;;;;3.00;3.00;;;;;;;;5061696;28;9867;-74
2022/09/30 14:58:49;;;;;;;;;7.00;4.25;;;;;;;;5061229;28;10060;-74
2022/09/30 15:01:18;;;;;;;;;4.50;4.50;;;;;;;;5061287;28;11508;-73
2022/09/30 15:03:45;;;;;;;;;3.25;3.25;;;;;;;;5058835;28;11612;-73
2022/09/30 15:06:24;;;;;;;;;4.25;3.75;;;;;;;;5058799;28;12772;-73
2022/09/30 15:08:51;;;;;;;;;4.00;3.75;;;;;;;;5058470;28;10652;-73
2022/09/30 15:11:20;;;;;;;;;4.25;4.00;;;;;;;;5059104;28;10288;-79
2022/09/30 15:13:48;;;;;;;;;4.75;4.25;;;;;;;;5059116;28;10909;-82
2022/09/30 15:16:23;;;;;;;;;3.75;3.00;;;;;;;;5059749;28;10068;-82
2022/09/30 15:18:48;;;;;;;;;51.00;38.75;;;;;;;;5060623;28;11450;-82
2022/09/30 15:21:15;;;;;;;;;21.75;17.50;;;;;;;;5060880;28;22702;-83
2022/09/30 15:23:51;;;;;;;;;1.50;1.25;;;;;;;;5060779;28;13474;-83
2022/09/30 15:26:18;;;;;;;;;8.00;8.00;;;;;;;;5060927;28;22639;-82
2022/09/30 15:28:43;;;;;;;;;17.25;14.00;;;;;;;;5061925;28;11659;-84
2022/09/30 15:31:28;;;;;;;;;9.25;8.00;;;;;;;;5062424;28;22365;-76
2022/09/30 15:34:11;;;;;;;;;4.25;4.25;;;;;;;;5061210;28;22360;-82
2022/09/30 15:36:37;;;;;;;;;3.75;3.75;;;;;;;;5042549;28;12033;-82
2022/09/30 15:39:04;;;;;;;;;5.00;4.25;;;;;;;;5060666;28;11162;-82
2022/09/30 15:41:36;;;;;;;;;8.00;5.00;;;;;;;;5059672;28;13059;-80
2022/09/30 15:44:02;;;;;;;;;9.00;6.50;;;;;;;;5060919;28;11472;-81
2022/09/30 15:46:28;;;;;;;;;7.00;7.00;;;;;;;;5060982;28;12714;-86
2022/09/30 15:48:56;;;;;;;;;9.75;8.25;;;;;;;;5060567;28;11354;-82
2022/09/30 15:51:21;;;;;;;;;6.50;5.00;;;;;;;;5060987;28;11599;-86
2022/09/30 15:53:47;;;;;;;;;5.50;5.00;;;;;;;;5059103;28;11374;-75
2022/09/30 15:56:15;;;;;;;;;7.00;6.75;;;;;;;;5060147;28;8916;-74
2022/09/30 15:58:52;;;;;;;;;14.75;8.25;;;;;;;;5060293;28;12077;-81
2022/09/30 16:01:26;;;;;;;;;8.50;8.50;;;;;;;;5041513;28;22050;-84
2022/09/30 16:04:02;;;;;;;;;10.50;6.50;;;;;;;;5057732;28;21496;-82
2022/09/30 16:06:33;;;;;;;;;10.50;9.50;;;;;;;;5059725;28;21654;-80
2022/09/30 16:09:01;;;;;;;;;22.75;19.50;;;;;;;;5059779;28;10665;-79
2022/09/30 16:11:39;;;;;;;;;9.25;7.50;;;;;;;;5058256;28;22945;-80
2022/09/30 16:14:06;;;;;;;;;4.50;4.50;;;;;;;;5057249;28;23710;-79
2022/09/30 16:16:33;;;;;;;;;5.00;4.75;;;;;;;;5060099;28;10380;-79
2022/09/30 16:18:59;;;;;;;;;4.25;4.25;;;;;;;;5060140;28;11595;-77
2022/09/30 16:21:28;;;;;;;;;5.75;4.50;;;;;;;;5059359;28;10571;-79
2022/09/30 16:23:54;;;;;;;;;3.75;3.75;;;;;;;;5057366;28;11781;-81
2022/09/30 16:28:55;;;;;;;;;4.00;4.00;;;;;;;;5037226;28;9603;-76
2022/09/30 16:31:21;;;;;;;;;3.75;3.25;;;;;;;;5027932;28;10524;-73
2022/09/30 16:33:47;;;;;;;;;3.50;3.50;;;;;;;;5018347;28;11663;-72
2022/09/30 16:36:13;;;;;;;;;4.00;4.00;;;;;;;;5017775;28;10415;-75
2022/09/30 16:38:39;;;;;;;;;7.00;3.00;;;;;;;;5018730;28;11690;-73
2022/09/30 16:41:04;;;;;;;;;2.00;2.00;;;;;;;;5018851;28;9511;-72
2022/09/30 16:43:30;;;;;;;;;4.50;4.50;;;;;;;;5029257;28;9090;-71
2022/09/30 16:45:56;;;;;;;;;3.00;3.00;;;;;;;;5036788;28;11637;-74
2022/09/30 16:48:24;;;;;;;;;3.25;2.25;;;;;;;;5038526;28;11389;-73
2022/09/30 16:51:08;;;;;;;;;4.00;4.00;;;;;;;;5037960;28;10349;-75
2022/09/30 16:53:33;;;;;;;;;3.00;2.00;;;;;;;;5037892;28;11674;-74
2022/09/30 16:55:59;;;;;;;;;6.25;3.50;;;;;;;;5036690;28;10460;-74
2022/09/30 16:58:33;;;;;;;;;5.00;5.00;;;;;;;;5038695;28;11456;-73
2022/09/30 17:00:59;;;;;;;;;5.00;4.50;;;;;;;;5038036;28;11890;-75
2022/09/30 17:03:25;;;;;;;;;6.25;6.25;;;;;;;;5038534;28;10337;-74
2022/09/30 17:05:53;;;;;;;;;5.50;5.00;;;;;;;;5035672;28;12870;-74
2022/09/30 17:08:20;;;;;;;;;5.75;5.75;;;;;;;;5038024;28;11454;-73
2022/09/30 17:10:46;;;;;;;;;5.50;4.50;;;;;;;;5036226;28;10578;-76
2022/09/30 17:13:15;;;;;;;;;5.00;5.00;;;;;;;;5036985;28;10536;-74
2022/09/30 17:15:41;;;;;;;;;3.25;3.25;;;;;;;;5021722;28;10889;-77
2022/09/30 17:18:07;;;;;;;;;4.00;4.00;;;;;;;;5026671;28;11637;-82
2022/09/30 17:20:33;;;;;;;;;5.75;5.75;;;;;;;;5035931;28;13625;-80
2022/09/30 17:22:58;;;;;;;;;7.00;7.00;;;;;;;;5018366;28;11565;-75
2022/09/30 17:25:23;;;;;;;;;7.00;7.00;;;;;;;;5027867;28;13526;-75
2022/09/30 17:27:48;;;;;;;;;14.00;8.50;;;;;;;;5037300;28;9650;-75
2022/09/30 17:30:14;;;;;;;;;24.25;21.25;;;;;;;;5037443;28;21699;-76
2022/09/30 17:32:41;;;;;;;;;21.00;19.75;;;;;;;;5036248;28;22851;-74
2022/09/30 17:35:07;;;;;;;;;17.75;15.50;;;;;;;;5023871;28;11884;-74
2022/09/30 17:37:32;;;;;;;;;15.00;14.00;;;;;;;;5016732;28;13717;-74
2022/09/30 17:39:58;;;;;;;;;12.50;11.25;;;;;;;;5016166;28;13418;-74
2022/09/30 17:45:07;;;;;;;;;5.50;5.50;;;;;;;;5026826;28;21385;-77
2022/09/30 17:47:33;;;;;;;;;6.00;5.75;;;;;;;;5037052;28;22956;-75
2022/09/30 17:49:58;;;;;;;;;8.25;7.75;;;;;;;;5039318;28;11295;-74
2022/09/30 17:52:24;;;;;;;;;10.00;6.00;;;;;;;;5038158;28;12596;-76
2022/09/30 17:54:50;;;;;;;;;7.00;7.00;;;;;;;;5037525;28;21979;-76
2022/09/30 17:57:16;;;;;;;;;12.00;6.75;;;;;;;;5037336;28;23996;-76
2022/09/30 17:59:44;;;;;;;;;7.00;7.00;;;;;;;;5037684;28;21530;-79
2022/09/30 18:02:09;;;;;;;;;9.00;9.00;;;;;;;;5039248;28;21589;-80
2022/09/30 18:04:36;;;;;;;;;12.00;10.25;;;;;;;;5031205;28;10713;-78
2022/09/30 18:07:01;;;;;;;;;11.25;10.25;;;;;;;;5020710;28;23543;-78
2022/09/30 18:09:27;;;;;;;;;11.00;9.50;;;;;;;;5021435;28;10688;-80
2022/09/30 18:11:53;;;;;;;;;13.75;11.75;;;;;;;;5020167;28;21327;-77
2022/09/30 18:14:21;;;;;;;;;13.00;11.00;;;;;;;;5019023;28;21921;-85
2022/09/30 18:16:46;;;;;;;;;14.75;12.25;;;;;;;;5019502;28;10999;-81
2022/09/30 18:19:12;;;;;;;;;21.00;17.00;;;;;;;;5020370;28;11373;-80
2022/09/30 18:21:37;;;;;;;;;15.75;13.50;;;;;;;;5020214;28;15168;-75
2022/09/30 18:24:03;;;;;;;;;19.50;17.00;;;;;;;;5020548;28;13227;-76
2022/09/30 18:26:29;;;;;;;;;18.75;18.00;;;;;;;;5040650;28;11628;-75
2022/09/30 18:28:56;;;;;;;;;17.50;15.25;;;;;;;;5040064;28;11083;-74
2022/09/30 18:31:27;;;;;;;;;15.75;15.50;;;;;;;;5034159;28;11477;-75
2022/09/30 18:33:56;;;;;;;;;21.00;16.75;;;;;;;;5019660;28;12688;-75
2022/09/30 18:36:22;;;;;;;;;17.50;15.00;;;;;;;;5040209;28;13362;-78
2022/09/30 18:38:47;;;;;;;;;20.25;18.75;;;;;;;;5037742;28;13726;-76
2022/09/30 18:41:14;;;;;;;;;20.25;19.00;;;;;;;;5035084;28;13452;-77
2022/09/30 18:43:40;;;;;;;;;16.50;14.75;;;;;;;;5020646;28;8792;-72
2022/09/30 18:46:07;;;;;;;;;24.00;19.00;;;;;;;;5037626;28;13621;-72
2022/09/30 18:48:35;;;;;;;;;22.00;20.50;;;;;;;;5039701;28;13552;-74
2022/09/30 18:51:03;;;;;;;;;18.75;18.75;;;;;;;;5036395;28;12352;-73
2022/09/30 18:53:30;;;;;;;;;17.75;17.75;;;;;;;;5037767;28;14142;-72
2022/09/30 18:55:58;;;;;;;;;23.00;21.00;;;;;;;;5035150;28;11551;-72
2022/09/30 18:58:23;;;;;;;;;28.00;21.75;;;;;;;;5037671;28;13334;-72
2022/09/30 19:00:49;;;;;;;;;20.50;17.75;;;;;;;;5036755;28;11727;-72
2022/09/30 19:03:15;;;;;;;;;15.75;14.50;;;;;;;;5038137;28;11382;-72
2022/09/30 19:05:40;;;;;;;;;22.50;20.50;;;;;;;;5033397;28;13867;-71
2022/09/30 19:08:08;;;;;;;;;21.75;18.75;;;;;;;;5038488;28;12383;-72
2022/09/30 19:10:34;;;;;;;;;20.50;19.25;;;;;;;;5035531;28;12316;-70
2022/09/30 19:13:00;;;;;;;;;20.75;20.50;;;;;;;;5037619;28;11483;-72
2022/09/30 19:15:25;;;;;;;;;22.50;19.50;;;;;;;;5028347;28;12354;-70
2022/09/30 19:17:52;;;;;;;;;20.75;17.50;;;;;;;;5034726;28;11569;-70
2022/09/30 19:20:17;;;;;;;;;16.50;15.50;;;;;;;;5035923;28;10819;-70
2022/09/30 19:22:43;;;;;;;;;19.75;18.00;;;;;;;;5035050;28;12438;-72
2022/09/30 19:25:10;;;;;;;;;20.00;19.25;;;;;;;;5033504;28;11598;-73
2022/09/30 19:27:37;;;;;;;;;45.50;38.50;;;;;;;;5038099;28;13495;-70
2022/09/30 19:30:06;;;;;;;;;43.50;36.00;;;;;;;;5036469;28;13984;-70
2022/09/30 19:32:34;;;;;;;;;31.75;29.25;;;;;;;;5035029;28;11843;-70
2022/09/30 19:35:00;;;;;;;;;32.00;29.00;;;;;;;;5032353;28;13490;-77
2022/09/30 19:37:25;;;;;;;;;27.00;23.75;;;;;;;;5037785;28;11829;-74
2022/09/30 19:39:50;;;;;;;;;37.75;35.50;;;;;;;;5037275;28;13280;-74
2022/09/30 19:42:17;;;;;;;;;29.75;25.00;;;;;;;;5036020;28;13277;-71
2022/09/30 19:44:42;;;;;;;;;27.50;24.50;;;;;;;;5037640;28;13497;-74
2022/09/30 19:47:08;;;;;;;;;36.75;32.75;;;;;;;;5037622;28;12744;-76
2022/09/30 19:49:33;;;;;;;;;36.75;33.25;;;;;;;;5039362;28;13256;-76
2022/09/30 19:52:01;;;;;;;;;25.25;23.00;;;;;;;;5038405;28;8837;-72
2022/09/30 19:54:26;;;;;;;;;19.75;18.75;;;;;;;;5031516;28;13321;-74
2022/09/30 19:56:52;;;;;;;;;21.75;20.50;;;;;;;;5017679;28;13965;-72
2022/09/30 19:59:18;;;;;;;;;16.25;15.25;;;;;;;;5018293;28;13513;-73
2022/09/30 20:01:43;;;;;;;;;20.25;19.00;;;;;;;;5017410;28;13745;-74
2022/09/30 20:04:09;;;;;;;;;21.75;16.50;;;;;;;;5020793;28;13302;-73
2022/09/30 20:06:35;;;;;;;;;19.50;19.00;;;;;;;;5039219;28;13688;-74
2022/09/30 20:09:03;;;;;;;;;23.75;22.75;;;;;;;;5039514;28;13469;-74
2022/09/30 20:11:34;;;;;;;;;26.00;24.50;;;;;;;;5037792;28;13492;-73
2022/09/30 20:16:43;;;;;;;;;27.75;25.25;;;;;;;;5039194;28;11686;-76
2022/09/30 20:19:09;;;;;;;;;23.25;20.75;;;;;;;;5038245;28;11541;-73
2022/09/30 20:21:36;;;;;;;;;22.50;19.75;;;;;;;;5038885;28;11100;-84
2022/09/30 20:24:02;;;;;;;;;19.00;15.00;;;;;;;;5035544;28;12424;-75
2022/09/30 20:26:27;;;;;;;;;14.00;13.25;;;;;;;;5038372;28;13447;-71
2022/09/30 20:28:59;;;;;;;;;16.50;16.50;;;;;;;;5023727;28;11393;-76
2022/09/30 20:31:25;;;;;;;;;20.75;19.75;;;;;;;;5018218;28;11940;-76
2022/09/30 20:33:54;;;;;;;;;20.50;18.00;;;;;;;;5017372;28;14629;-74
2022/09/30 20:36:21;;;;;;;;;20.00;19.75;;;;;;;;5032826;28;11703;-74
2022/09/30 20:38:50;;;;;;;;;21.00;18.50;;;;;;;;5025961;28;11365;-74
2022/09/30 20:41:16;;;;;;;;;18.25;18.25;;;;;;;;5033807;28;11710;-73
2022/09/30 20:43:42;;;;;;;;;19.50;19.50;;;;;;;;5021172;28;13759;-74
2022/09/30 20:46:08;;;;;;;;;20.50;19.00;;;;;;;;5019882;28;11632;-74
2022/09/30 20:48:34;;;;;;;;;15.00;14.75;;;;;;;;5026537;28;13488;-72
2022/09/30 20:51:06;;;;;;;;;17.75;17.00;;;;;;;;5028157;28;13482;-71
2022/09/30 20:53:32;;;;;;;;;17.25;17.00;;;;;;;;5027593;28;12228;-71
2022/09/30 20:55:59;;;;;;;;;82.67;66.33;;;;;;;;5025305;28;11692;-69
2022/09/30 20:58:24;;;;;;;;;22.25;21.50;;;;;;;;5030021;28;13339;-74
2022/09/30 21:00:50;;;;;;;;;16.00;12.75;;;;;;;;5033632;28;15372;-74
2022/09/30 21:03:15;;;;;;;;;16.25;15.00;;;;;;;;5036707;28;13255;-73
2022/09/30 21:05:49;;;;;;;;;15.50;13.50;;;;;;;;5035328;28;10352;-73
2022/09/30 21:08:15;;;;;;;;;16.00;14.25;;;;;;;;5032627;28;11472;-74
2022/09/30 21:10:40;;;;;;;;;17.75;14.25;;;;;;;;5034466;28;11876;-74
2022/09/30 21:13:06;;;;;;;;;18.25;16.25;;;;;;;;5037741;28;8886;-73
2022/09/30 21:15:32;;;;;;;;;19.25;15.00;;;;;;;;5030864;28;9821;-74
2022/09/30 21:17:57;;;;;;;;;20.25;18.25;;;;;;;;5034240;28;11635;-75
2022/09/30 21:20:37;;;;;;;;;19.25;19.00;;;;;;;;5036604;28;13453;-75
2022/09/30 21:23:03;;;;;;;;;21.00;18.00;;;;;;;;5036518;28;14709;-74
2022/09/30 21:25:31;;;;;;;;;16.50;14.50;;;;;;;;5029662;28;12180;-75
2022/09/30 21:27:59;;;;;;;;;18.25;14.75;;;;;;;;5022689;28;13392;-76
2022/09/30 21:30:25;;;;;;;;;22.00;17.50;;;;;;;;5017768;28;12234;-74
2022/09/30 21:32:51;;;;;;;;;19.75;19.75;;;;;;;;5018089;28;13200;-74
